Time;durP1;ratioP1;P1;durP2;ratioP2;P2;SDS_P1;SDS_P2;PMS_P1;PMS_P2;Temp;Humidity;BMP_temperature;BMP_pressure;BME280_temperature;BME280_humidity;BME280_pressure;Samples;Min_cycle;Max_cycle;Signal;HPM_P1;HPM_P2
2023/08/04 00:00:38;;;;;;;4.88;1.77;;;;;;;23.14;51.16;100783.03;5036608;28;20033;-64
2023/08/04 00:03:04;;;;;;;3.85;1.77;;;;;;;23.15;51.05;100785.53;5048009;28;20044;-63
2023/08/04 00:05:29;;;;;;;6.78;2.00;;;;;;;23.17;51.10;100788.06;5033194;28;20045;-68
2023/08/04 00:07:54;;;;;;;5.45;1.30;;;;;;;23.16;50.77;100789.94;5047559;28;20049;-64
2023/08/04 00:10:20;;;;;;;7.82;1.80;;;;;;;23.16;50.39;100794.56;5050201;28;20040;-64
2023/08/04 00:12:46;;;;;;;5.43;1.73;;;;;;;23.19;50.81;100794.16;5030998;28;20033;-64
2023/08/04 00:15:11;;;;;;;7.22;1.88;;;;;;;23.18;51.17;100803.38;5030939;28;20040;-64
2023/08/04 00:17:38;;;;;;;5.35;1.80;;;;;;;23.15;50.60;100801.06;5032520;28;20112;-64
2023/08/04 00:20:08;;;;;;;3.28;1.50;;;;;;;23.18;50.90;100803.38;5031269;28;20036;-64
2023/08/04 00:22:34;;;;;;;8.93;1.90;;;;;;;23.19;50.40;100794.16;5031005;28;20044;-64
2023/08/04 00:25:00;;;;;;;5.03;1.48;;;;;;;23.16;50.91;100797.31;5014503;28;20029;-64
2023/08/04 00:27:25;;;;;;;5.00;1.73;;;;;;;23.17;50.67;100799.00;5031867;28;20030;-64
2023/08/04 00:29:51;;;;;;;4.80;1.77;;;;;;;23.17;51.01;100802.53;5033022;28;20029;-63
2023/08/04 00:32:16;;;;;;;6.05;1.95;;;;;;;23.16;51.28;100792.69;5032337;28;20378;-64
2023/08/04 00:34:42;;;;;;;8.23;1.88;;;;;;;23.17;50.73;100799.00;5032192;28;20504;-64
2023/08/04 00:37:07;;;;;;;12.18;2.10;;;;;;;23.15;50.96;100787.41;5030907;28;20049;-63
2023/08/04 00:39:33;;;;;;;12.73;1.77;;;;;;;23.15;50.66;100795.63;5031040;28;20115;-64
2023/08/04 00:41:58;;;;;;;11.82;2.15;;;;;;;23.15;51.02;100799.19;5034136;28;20040;-64
2023/08/04 00:44:24;;;;;;;8.55;1.80;;;;;;;23.12;50.88;100794.16;5040022;28;20041;-63
2023/08/04 00:46:49;;;;;;;7.47;2.50;;;;;;;23.14;50.62;100807.63;5034524;28;20029;-63
2023/08/04 00:49:16;;;;;;;8.25;1.70;;;;;;;23.12;51.17;100807.81;5017967;28;20036;-63
2023/08/04 00:51:41;;;;;;;4.25;1.70;;;;;;;23.11;51.05;100810.78;5018175;28;20117;-63
2023/08/04 00:54:07;;;;;;;5.35;2.03;;;;;;;23.09;50.90;100812.84;5034110;28;20033;-63
2023/08/04 00:56:33;;;;;;;5.40;1.65;;;;;;;23.07;51.08;100820.44;5035352;28;20025;-63
2023/08/04 00:58:59;;;;;;;5.35;1.75;;;;;;;23.04;50.34;100818.97;5017210;28;20131;-63
2023/08/04 01:01:24;;;;;;;4.15;1.80;;;;;;;23.04;50.58;100823.56;5035377;28;20096;-63
2023/08/04 01:03:51;;;;;;;6.63;1.70;;;;;;;23.00;50.33;100819.59;5035253;28;20033;-67
2023/08/04 01:06:36;;;;;;;4.25;1.58;;;;;;;22.98;50.99;100821.69;5017478;28;20424;-63
2023/08/04 01:09:04;;;;;;;4.20;2.08;;;;;;;22.93;50.67;100825.06;5034898;28;20521;-63
2023/08/04 01:11:37;;;;;;;4.32;2.53;;;;;;;22.93;51.25;100826.94;5035072;28;20060;-63
2023/08/04 01:14:03;;;;;;;4.95;1.70;;;;;;;22.86;50.39;100823.38;5017222;28;20045;-63
2023/08/04 01:16:31;;;;;;;11.00;1.80;;;;;;;22.88;51.26;100829.47;5033934;28;20500;-63
2023/08/04 01:18:59;;;;;;;6.45;2.05;;;;;;;22.86;51.28;100834.31;5033546;28;20037;-63
2023/08/04 01:21:24;;;;;;;6.25;1.85;;;;;;;22.83;50.47;100829.25;5029390;28;20034;-63
2023/08/04 01:23:50;;;;;;;9.20;3.50;;;;;;;22.81;51.20;100834.09;5034895;28;20029;-62
2023/08/04 01:26:15;;;;;;;10.82;2.47;;;;;;;22.77;50.51;100824.63;5034667;28;20033;-63
2023/08/04 01:28:42;;;;;;;9.77;1.77;;;;;;;22.75;50.73;100838.50;5034735;28;20033;-63
2023/08/04 01:31:08;;;;;;;7.47;2.17;;;;;;;22.71;51.40;100839.94;5033875;28;20025;-62
2023/08/04 01:33:33;;;;;;;6.75;1.60;;;;;;;22.67;51.21;100835.94;5033421;28;20488;-62
2023/08/04 01:35:59;;;;;;;7.75;1.85;;;;;;;22.61;50.40;100837.59;5016951;28;20025;-62
2023/08/04 01:38:24;;;;;;;8.05;2.63;;;;;;;22.60;50.63;100840.53;5033402;28;20077;-63
2023/08/04 01:40:50;;;;;;;9.38;2.42;;;;;;;22.57;50.91;100851.88;5033302;28;20033;-63
2023/08/04 01:43:15;;;;;;;9.82;1.85;;;;;;;22.52;50.49;100849.75;5033219;28;20048;-63
2023/08/04 01:45:41;;;;;;;8.30;2.45;;;;;;;22.48;51.50;100847.63;5034320;28;20029;-63
2023/08/04 01:48:06;;;;;;;4.22;2.17;;;;;;;22.44;50.41;100851.84;5034402;28;20116;-63
2023/08/04 01:50:31;;;;;;;5.60;2.40;;;;;;;22.40;51.26;100851.41;5032937;28;20156;-63
2023/08/04 01:52:58;;;;;;;5.60;2.22;;;;;;;22.37;50.92;100850.97;5033218;28;20380;-63
2023/08/04 01:55:23;;;;;;;6.28;2.47;;;;;;;22.34;50.34;100856.84;5033082;28;20099;-63
2023/08/04 01:57:49;;;;;;;5.03;2.20;;;;;;;22.29;50.93;100849.28;5016664;28;20080;-64
2023/08/04 02:00:14;;;;;;;8.27;1.88;;;;;;;22.25;50.56;100847.97;5034480;28;20040;-63
2023/08/04 02:02:40;;;;;;;8.95;2.15;;;;;;;22.20;50.35;100853.22;5033559;28;20134;-64
2023/08/04 02:05:06;;;;;;;7.22;1.65;;;;;;;22.16;50.59;100860.16;5032838;28;20400;-63
2023/08/04 02:07:32;;;;;;;7.10;2.20;;;;;;;22.11;51.16;100862.63;5032410;28;20046;-63
2023/08/04 02:09:57;;;;;;;3.92;2.00;;;;;;;22.09;51.38;100855.69;5034164;28;20033;-63
2023/08/04 02:12:23;;;;;;;7.65;2.20;;;;;;;22.04;51.05;100856.31;5033890;28;20022;-63
2023/08/04 02:14:48;;;;;;;7.85;1.83;;;;;;;22.02;51.09;100858.41;5034056;28;20025;-63
2023/08/04 02:17:15;;;;;;;9.50;2.25;;;;;;;22.00;50.41;100857.75;5032495;28;20461;-63
2023/08/04 02:19:41;;;;;;;3.30;1.95;;;;;;;21.98;50.93;100863.41;5032852;28;20025;-63
2023/08/04 02:22:07;;;;;;;3.17;1.88;;;;;;;21.97;51.11;100858.19;5033796;28;20044;-63
2023/08/04 02:24:32;;;;;;;3.92;2.08;;;;;;;21.99;50.90;100867.00;5032409;28;20075;-63
2023/08/04 02:26:57;;;;;;;12.25;2.95;;;;;;;21.99;51.33;100858.81;5033651;28;20461;-63
2023/08/04 02:29:23;;;;;;;7.30;1.90;;;;;;;22.00;51.18;100863.19;5015980;28;20025;-63
2023/08/04 02:31:49;;;;;;;5.18;1.98;;;;;;;22.04;51.54;100861.75;5033447;28;20037;-64
2023/08/04 02:34:14;;;;;;;16.35;2.60;;;;;;;22.04;50.99;100865.34;5032288;28;20379;-63
2023/08/04 02:36:39;;;;;;;7.38;2.35;;;;;;;22.09;51.01;100864.72;5015896;28;20033;-63
2023/08/04 02:39:05;;;;;;;6.57;2.47;;;;;;;22.09;52.03;100864.72;5033430;28;20048;-63
2023/08/04 02:41:30;;;;;;;5.70;2.38;;;;;;;22.13;51.80;100863.28;5033503;28;20099;-63
2023/08/04 02:43:55;;;;;;;8.32;2.63;;;;;;;22.17;51.23;100860.97;5032168;28;20025;-64
2023/08/04 02:46:23;;;;;;;8.57;2.58;;;;;;;22.19;51.42;100864.34;5031835;28;20034;-63
2023/08/04 02:48:48;;;;;;;12.02;3.00;;;;;;;22.22;52.10;100875.69;5032076;28;20052;-63
2023/08/04 02:51:13;;;;;;;9.60;2.53;;;;;;;22.24;51.90;100873.63;5033394;28;20033;-63
2023/08/04 02:53:41;;;;;;;6.10;2.60;;;;;;;22.27;51.41;100867.75;5032111;28;20034;-63
2023/08/04 02:56:12;;;;;;;2.78;1.75;;;;;;;22.30;51.20;100880.13;5015576;28;20037;-63
2023/08/04 02:58:37;;;;;;;8.00;2.42;;;;;;;22.27;51.47;100873.22;5033494;28;20452;-63
2023/08/04 03:01:03;;;;;;;10.82;2.33;;;;;;;22.31;51.84;100882.66;5032131;28;20025;-63
2023/08/04 03:03:30;;;;;;;4.75;2.13;;;;;;;22.34;52.23;100879.50;5031283;28;20127;-64
2023/08/04 03:05:57;;;;;;;5.78;2.20;;;;;;;22.33;51.95;100871.53;5031891;28;20033;-63
2023/08/04 03:08:23;;;;;;;8.32;3.00;;;;;;;22.37;51.14;100879.13;5015451;28;20056;-64
2023/08/04 03:10:48;;;;;;;11.82;2.80;;;;;;;22.35;51.75;100881.22;5031727;28;20112;-63
2023/08/04 03:13:13;;;;;;;9.95;2.45;;;;;;;22.38;51.76;100880.81;5033187;28;20086;-63
2023/08/04 03:15:39;;;;;;;9.63;3.45;;;;;;;22.37;52.14;100881.00;5031779;28;20033;-64
2023/08/04 03:18:05;;;;;;;8.73;1.95;;;;;;;22.37;51.84;100873.66;5031572;28;20044;-63
2023/08/04 03:20:35;;;;;;;11.50;2.65;;;;;;;22.41;51.61;100887.75;5032824;28;20077;-63
2023/08/04 03:23:00;;;;;;;7.43;2.47;;;;;;;22.41;51.96;100885.84;5032816;28;20036;-64
2023/08/04 03:25:26;;;;;;;4.60;2.30;;;;;;;22.42;52.35;100887.53;5031405;28;20033;-63
2023/08/04 03:27:51;;;;;;;8.05;2.80;;;;;;;22.42;51.94;100883.94;5032951;28;20103;-63
2023/08/04 03:30:17;;;;;;;8.75;2.95;;;;;;;22.41;52.11;100894.06;5031453;28;20547;-63
2023/08/04 03:32:42;;;;;;;7.18;2.50;;;;;;;22.42;51.92;100894.88;5031422;28;20056;-63
2023/08/04 03:35:07;;;;;;;9.38;2.72;;;;;;;22.40;52.15;100897.81;5031343;28;20061;-63
2023/08/04 03:37:33;;;;;;;7.03;2.88;;;;;;;22.40;51.63;100888.78;5032622;28;20083;-64
2023/08/04 03:39:59;;;;;;;10.15;2.50;;;;;;;22.41;52.34;100891.31;5031551;28;20030;-63
2023/08/04 03:42:24;;;;;;;6.85;2.15;;;;;;;22.41;51.41;100896.78;5032633;28;20034;-64
2023/08/04 03:44:50;;;;;;;12.90;2.65;;;;;;;22.40;51.72;100888.78;5032396;28;20044;-63
2023/08/04 03:47:15;;;;;;;6.20;2.20;;;;;;;22.41;51.36;100896.78;5031199;28;20029;-63
2023/08/04 03:49:40;;;;;;;5.80;2.25;;;;;;;22.39;51.57;100896.13;5014891;28;20030;-64
2023/08/04 03:52:06;;;;;;;9.43;2.63;;;;;;;22.41;52.47;100904.97;5032635;28;20041;-63
2023/08/04 03:54:32;;;;;;;8.25;2.42;;;;;;;22.41;51.82;100902.25;5031289;28;20061;-63
2023/08/04 03:56:57;;;;;;;7.28;3.03;;;;;;;22.41;51.53;100899.50;5031125;28;20030;-63
2023/08/04 03:59:22;;;;;;;6.63;2.47;;;;;;;22.41;51.39;100906.84;5031353;28;20500;-63
2023/08/04 04:01:48;;;;;;;7.80;2.22;;;;;;;22.40;51.92;100897.81;5031366;28;20029;-63
2023/08/04 04:04:13;;;;;;;7.22;2.80;;;;;;;22.41;51.54;100904.97;5031180;28;20049;-63
2023/08/04 04:06:38;;;;;;;5.18;2.28;;;;;;;22.43;52.19;100908.31;5014613;28;20046;-64
2023/08/04 04:09:04;;;;;;;9.73;2.75;;;;;;;22.41;52.28;100907.69;5032677;28;20577;-64
2023/08/04 04:11:29;;;;;;;10.98;2.70;;;;;;;22.41;51.73;100910.44;5032275;28;20057;-64
2023/08/04 04:13:55;;;;;;;9.98;2.63;;;;;;;22.42;51.93;100909.38;5031576;28;20030;-63
2023/08/04 04:16:21;;;;;;;12.45;3.38;;;;;;;22.42;52.35;100920.28;5034753;28;20029;-63
2023/08/04 04:18:46;;;;;;;7.60;2.13;;;;;;;22.41;51.94;100913.16;5018764;28;20029;-64
2023/08/04 04:21:12;;;;;;;7.38;2.72;;;;;;;22.42;52.03;100919.44;5034871;28;20034;-63
2023/08/04 04:23:37;;;;;;;9.38;3.15;;;;;;;22.40;52.11;100919.66;5033677;28;20103;-63
2023/08/04 04:26:04;;;;;;;7.43;3.80;;;;;;;22.41;51.46;100913.16;5035847;28;20382;-63
2023/08/04 04:28:30;;;;;;;5.28;2.25;;;;;;;22.42;51.87;100923.00;5033965;28;20091;-63
2023/08/04 04:31:03;;;;;;;9.50;3.40;;;;;;;22.43;51.48;100932.91;5035663;28;20409;-63
2023/08/04 04:33:28;;;;;;;;;;;;;;;22.44;51.25;100922.81;5034250;28;20112;-63
2023/08/04 04:35:53;;;;;;;4.82;2.65;;;;;;;22.44;51.22;100929.13;5018066;28;19912;-64
2023/08/04 04:38:19;;;;;;;8.90;2.40;;;;;;;22.46;52.22;100932.50;5034605;28;20526;-63
2023/08/04 04:41:02;;;;;;;9.93;3.25;;;;;;;22.46;51.40;100931.66;5034631;28;20087;-63
2023/08/04 04:43:29;;;;;;;10.35;3.22;;;;;;;22.44;51.67;100928.28;5034559;28;20057;-64
2023/08/04 04:45:54;;;;;;;5.38;2.50;;;;;;;22.43;51.40;100930.16;5034234;28;20056;-63
2023/08/04 04:48:21;;;;;;;7.30;3.17;;;;;;;22.46;51.92;100932.50;5017555;28;20560;-63
2023/08/04 04:50:46;;;;;;;12.13;3.00;;;;;;;22.45;51.28;100935.41;5034162;28;20092;-63
2023/08/04 04:53:12;;;;;;;11.77;3.05;;;;;;;22.45;51.34;100941.72;5035609;28;20041;-63
2023/08/04 04:55:38;;;;;;;7.88;3.10;;;;;;;22.47;51.47;100945.09;5034189;28;20121;-63
2023/08/04 04:58:03;;;;;;;11.18;3.97;;;;;;;22.47;52.55;100934.16;5034024;28;20113;-63
2023/08/04 05:00:31;;;;;;;12.40;3.47;;;;;;;22.46;51.86;100940.69;5034485;28;20057;-63
2023/08/04 05:02:56;;;;;;;9.52;2.80;;;;;;;22.47;51.92;100942.34;5034325;28;20053;-63
2023/08/04 05:05:22;;;;;;;4.82;2.45;;;;;;;22.48;51.75;100941.31;5034167;28;20072;-63
2023/08/04 05:07:47;;;;;;;11.50;3.30;;;;;;;22.48;51.53;100941.31;5035523;28;20065;-63
2023/08/04 05:10:13;;;;;;;10.27;4.00;;;;;;;22.46;52.29;100932.50;5035420;28;20113;-63
2023/08/04 05:12:41;;;;;;;10.82;3.53;;;;;;;22.52;52.24;100950.78;5035448;28;20034;-65
2023/08/04 05:15:08;;;;;;;8.98;3.20;;;;;;;22.53;51.48;100949.72;5035736;28;20022;-63
2023/08/04 05:17:35;;;;;;;11.27;3.92;;;;;;;22.54;51.77;100950.56;5034707;28;20029;-63
2023/08/04 05:20:02;;;;;;;7.70;3.47;;;;;;;22.55;51.58;100955.84;5033970;28;20061;-63
2023/08/04 05:22:28;;;;;;;8.18;3.10;;;;;;;22.56;51.65;100951.22;5035957;28;20072;-63
2023/08/04 05:24:53;;;;;;;10.45;2.55;;;;;;;22.57;52.03;100951.03;5034701;28;20465;-63
2023/08/04 05:27:19;;;;;;;10.40;5.28;;;;;;;22.59;51.39;100954.38;5033487;28;20090;-63
2023/08/04 05:29:44;;;;;;;9.35;3.22;;;;;;;22.60;51.80;100960.69;5017688;28;20029;-63
2023/08/04 05:32:09;;;;;;;10.45;3.75;;;;;;;22.60;51.42;100964.28;5037088;28;20396;-64
2023/08/04 05:34:35;;;;;;;10.15;2.80;;;;;;;22.60;51.98;100971.63;5037874;28;20026;-63
2023/08/04 05:37:00;;;;;;;11.32;3.10;;;;;;;22.62;51.32;100966.78;5017206;28;20034;-63
2023/08/04 05:39:26;;;;;;;15.05;4.68;;;;;;;22.63;52.21;100968.47;5035100;28;20489;-62
2023/08/04 05:41:51;;;;;;;10.35;4.07;;;;;;;22.65;52.04;100974.59;5034998;28;20026;-65
2023/08/04 05:44:16;;;;;;;11.80;2.95;;;;;;;22.66;51.83;100967.25;5033134;28;20038;-64
2023/08/04 05:46:42;;;;;;;8.32;4.05;;;;;;;22.69;52.05;100975.03;5034361;28;20463;-67
2023/08/04 05:49:07;;;;;;;16.58;2.90;;;;;;;22.70;51.88;100976.75;5032888;28;20044;-66
2023/08/04 05:51:33;;;;;;;8.98;2.92;;;;;;;22.72;51.23;100974.63;5034342;28;20168;-67
2023/08/04 05:53:58;;;;;;;6.22;3.47;;;;;;;22.73;51.38;100992.69;5032979;28;20025;-67
2023/08/04 05:56:23;;;;;;;5.93;3.22;;;;;;;22.72;51.45;100982.84;5034296;28;20059;-67
2023/08/04 05:58:49;;;;;;;9.75;3.05;;;;;;;22.77;51.51;100999.44;5032983;28;20037;-65
2023/08/04 06:01:14;;;;;;;6.82;2.90;;;;;;;22.80;52.11;100988.97;5034301;28;20025;-65
2023/08/04 06:03:39;;;;;;;5.85;3.30;;;;;;;22.82;51.91;100991.47;5016579;28;20120;-66
2023/08/04 06:06:05;;;;;;;4.80;3.10;;;;;;;22.85;51.63;100991.06;5034326;28;20062;-67
2023/08/04 06:08:30;;;;;;;9.18;3.72;;;;;;;22.86;51.64;100993.63;5034036;28;20099;-63
2023/08/04 06:10:56;;;;;;;11.30;3.63;;;;;;;22.91;51.29;100998.44;5032660;28;20478;-63
2023/08/04 06:13:21;;;;;;;10.02;3.92;;;;;;;22.94;51.00;100996.16;5034059;28;20036;-63
2023/08/04 06:15:47;;;;;;;8.30;3.33;;;;;;;22.97;51.58;101006.69;5016048;28;20421;-63
2023/08/04 06:18:13;;;;;;;10.30;3.00;;;;;;;23.01;51.00;101007.09;5016255;28;20029;-62
2023/08/04 06:20:38;;;;;;;8.57;4.10;;;;;;;23.04;51.80;101004.78;5032527;28;20041;-63
2023/08/04 06:23:04;;;;;;;7.55;3.60;;;;;;;23.09;51.42;101007.75;5034046;28;20493;-63
2023/08/04 06:25:29;;;;;;;8.13;3.83;;;;;;;23.12;51.71;101009.22;5032718;28;20032;-63
2023/08/04 06:27:55;;;;;;;11.85;3.63;;;;;;;23.13;51.22;100999.97;5016097;28;20124;-63
2023/08/04 06:30:20;;;;;;;8.27;3.35;;;;;;;23.16;51.27;101005.03;5033961;28;20401;-63
2023/08/04 06:32:47;;;;;;;8.73;3.50;;;;;;;23.22;50.81;101017.03;5041834;28;20029;-64
2023/08/04 06:35:12;;;;;;;8.15;3.90;;;;;;;23.26;51.39;101021.88;5021360;28;20033;-63
2023/08/04 06:37:38;;;;;;;6.95;3.67;;;;;;;23.31;51.10;101022.09;5040931;28;20043;-63
2023/08/04 06:40:04;;;;;;;12.05;3.58;;;;;;;23.38;50.93;101024.88;5040591;28;20451;-63
2023/08/04 06:42:30;;;;;;;9.30;3.65;;;;;;;23.43;51.16;101028.66;5038531;28;20497;-63
2023/08/04 06:44:56;;;;;;;9.57;3.35;;;;;;;23.49;51.25;101027.84;5033617;28;20086;-63
2023/08/04 06:47:21;;;;;;;6.07;3.25;;;;;;;23.55;51.15;101032.47;5033991;28;20397;-63
2023/08/04 06:49:46;;;;;;;11.68;3.08;;;;;;;23.60;51.25;101034.56;5032503;28;20038;-63
2023/08/04 06:52:12;;;;;;;11.40;3.53;;;;;;;23.65;50.96;101035.63;5033656;28;20052;-62
2023/08/04 06:54:37;;;;;;;8.90;3.85;;;;;;;23.69;51.31;101039.66;5015612;28;20037;-63
2023/08/04 06:57:03;;;;;;;7.30;3.80;;;;;;;23.73;50.72;101046.38;5033347;28;20034;-63
2023/08/04 06:59:28;;;;;;;7.55;3.20;;;;;;;23.78;51.02;101049.31;5033151;28;20025;-63
2023/08/04 07:01:54;;;;;;;7.78;3.28;;;;;;;23.84;50.98;101053.13;5015266;28;20025;-63
2023/08/04 07:04:20;;;;;;;14.13;3.65;;;;;;;23.93;50.34;101049.09;5033109;28;20055;-63
2023/08/04 07:06:47;;;;;;;13.63;3.05;;;;;;;24.02;51.12;101044.28;5031280;28;20041;-65
2023/08/04 07:09:12;;;;;;;8.68;3.72;;;;;;;24.09;51.13;101056.06;5032716;28;20095;-63
2023/08/04 07:11:38;;;;;;;8.48;3.25;;;;;;;24.16;50.95;101045.97;5031519;28;20036;-63
2023/08/04 07:14:03;;;;;;;8.40;3.40;;;;;;;24.22;50.37;101053.34;5031689;28;20017;-63
2023/08/04 07:16:29;;;;;;;5.85;2.83;;;;;;;24.30;50.51;101053.13;5031671;28;20016;-64
2023/08/04 07:18:54;;;;;;;8.35;2.80;;;;;;;24.40;50.31;101055.44;5031564;28;20440;-64
2023/08/04 07:21:19;;;;;;;10.27;3.75;;;;;;;24.45;50.58;101061.94;5032964;28;20100;-64
2023/08/04 07:23:45;;;;;;;7.05;2.53;;;;;;;24.51;50.50;101055.59;5014853;28;20113;-64
2023/08/04 07:26:10;;;;;;;5.38;2.40;;;;;;;24.67;50.19;101055.16;5032836;28;20075;-64
2023/08/04 07:28:36;;;;;;;10.30;3.35;;;;;;;24.86;50.08;101048.78;5030800;28;20435;-64
2023/08/04 07:31:06;;;;;;;5.28;2.83;;;;;;;25.01;49.49;101058.63;5032475;28;20495;-63
2023/08/04 07:33:32;;;;;;;8.57;2.88;;;;;;;25.14;49.57;101059.41;5031309;28;20041;-63
2023/08/04 07:35:57;;;;;;;11.38;3.10;;;;;;;25.29;49.77;101056.38;5032777;28;20018;-64
2023/08/04 07:38:24;;;;;;;8.73;2.55;;;;;;;25.45;48.92;101053.09;5031382;28;20021;-65
2023/08/04 07:40:50;;;;;;;7.15;2.38;;;;;;;25.65;49.12;101058.50;5047943;28;20017;-65
2023/08/04 07:43:16;;;;;;;9.95;2.97;;;;;;;26.00;48.62;101063.28;5031355;28;20025;-65
2023/08/04 07:45:42;;;;;;;13.48;2.78;;;;;;;26.53;48.47;101065.53;5031114;28;20482;-65
2023/08/04 07:48:07;;;;;;;7.55;2.42;;;;;;;26.79;48.25;101062.53;4998479;28;20121;-65
2023/08/04 07:50:36;;;;;;;3.85;1.75;;;;;;;26.91;47.98;101048.84;5034254;28;20025;-65
2023/08/04 07:53:02;;;;;;;6.40;2.38;;;;;;;27.15;47.85;101061.66;5035406;28;20034;-65
2023/08/04 07:55:28;;;;;;;7.20;1.70;;;;;;;27.25;47.33;101061.13;5035384;28;20034;-65
2023/08/04 07:57:54;;;;;;;4.85;2.40;;;;;;;27.32;46.88;101053.59;5035275;28;20431;-65
2023/08/04 08:00:19;;;;;;;7.05;2.10;;;;;;;27.38;47.06;101063.66;5036332;28;20029;-65
2023/08/04 08:02:44;;;;;;;9.05;1.88;;;;;;;27.45;47.27;101064.44;5034817;28;20479;-65
2023/08/04 08:05:10;;;;;;;6.85;2.42;;;;;;;27.53;47.34;101064.09;5034944;28;20041;-66
2023/08/04 08:07:36;;;;;;;12.02;2.10;;;;;;;27.56;46.90;101075.47;5034864;28;20033;-65
2023/08/04 08:10:02;;;;;;;7.00;2.00;;;;;;;27.61;47.06;101072.03;5018389;28;20090;-65
2023/08/04 08:12:29;;;;;;;10.07;2.50;;;;;;;27.68;46.65;101067.25;5051593;28;20037;-66
2023/08/04 08:14:55;;;;;;;5.05;1.95;;;;;;;27.70;46.26;101076.13;5035150;28;20057;-65
2023/08/04 08:17:21;;;;;;;5.40;2.17;;;;;;;27.72;46.96;101074.00;5034927;28;20084;-65
2023/08/04 08:19:46;;;;;;;3.20;1.67;;;;;;;27.98;46.17;101079.06;5036132;28;20497;-65
2023/08/04 08:22:11;;;;;;;4.13;1.67;;;;;;;28.26;45.40;101076.47;5034660;28;20033;-65
2023/08/04 08:24:37;;;;;;;6.40;1.55;;;;;;;28.38;45.50;101086.66;5035971;28;20032;-65
2023/08/04 08:27:02;;;;;;;6.85;1.95;;;;;;;28.41;45.37;101088.94;5035778;28;20048;-65
2023/08/04 08:29:27;;;;;;;5.57;2.10;;;;;;;28.51;45.99;101072.63;5035957;28;20405;-65
2023/08/04 08:31:53;;;;;;;4.97;1.45;;;;;;;28.71;45.83;101089.66;5034476;28;20113;-65
2023/08/04 08:34:18;;;;;;;5.95;1.67;;;;;;;28.91;45.54;101081.84;5050921;28;20113;-64
2023/08/04 08:36:43;;;;;;;4.43;2.15;;;;;;;28.94;45.31;101089.63;5034439;28;20448;-64
2023/08/04 08:39:09;;;;;;;4.55;1.38;;;;;;;29.08;44.90;101077.25;5035831;28;20033;-64
2023/08/04 08:41:34;;;;;;;9.00;2.33;;;;;;;29.22;44.86;101086.94;5035653;28;20037;-64
2023/08/04 08:43:59;;;;;;;8.00;1.60;;;;;;;29.02;44.87;101089.25;5034300;28;20048;-64
2023/08/04 08:46:25;;;;;;;3.60;1.80;;;;;;;28.89;44.80;101089.53;5034271;28;20033;-64
2023/08/04 08:48:57;;;;;;;7.05;2.50;;;;;;;28.80;45.18;101093.75;5035306;28;20029;-64
2023/08/04 08:51:22;;;;;;;2.95;1.85;;;;;;;28.71;45.27;101089.66;5034294;28;20033;-64
2023/08/04 08:53:48;;;;;;;3.90;2.20;;;;;;;28.66;45.14;101092.31;5034140;28;20034;-64
2023/08/04 08:56:15;;;;;;;7.28;3.05;;;;;;;28.62;44.96;101096.59;5017641;28;20447;-64
2023/08/04 08:58:42;;;;;;;6.82;2.15;;;;;;;28.58;45.25;101106.44;5035482;28;20029;-64
2023/08/04 09:01:07;;;;;;;4.05;1.95;;;;;;;28.53;44.76;101095.31;5032792;28;20408;-64
2023/08/04 09:03:36;;;;;;;3.10;2.13;;;;;;;28.52;45.05;101104.66;5017454;28;20030;-64
2023/08/04 09:06:02;;;;;;;10.43;2.20;;;;;;;28.64;43.85;101100.84;5034081;28;20096;-65
2023/08/04 09:08:31;;;;;;;5.57;2.47;;;;;;;28.89;43.52;101103.31;5035212;28;20424;-64
2023/08/04 09:10:59;;;;;;;7.55;2.10;;;;;;;29.06;44.06;101107.00;5033874;28;20033;-64
2023/08/04 09:13:28;;;;;;;2.97;2.15;;;;;;;29.03;43.92;101109.41;5035087;28;20167;-64
2023/08/04 09:15:56;;;;;;;3.08;1.90;;;;;;;29.03;43.87;101099.22;5033747;28;20405;-64
2023/08/04 09:18:31;;;;;;;5.68;2.20;;;;;;;29.06;43.97;101104.25;5033763;28;20412;-64
2023/08/04 09:21:09;;;;;;;4.38;2.55;;;;;;;29.03;43.52;101110.25;5035037;28;20034;-64
2023/08/04 09:23:35;;;;;;;3.63;1.63;;;;;;;29.05;43.31;101108.09;5017076;28;20025;-64
2023/08/04 09:26:01;;;;;;;4.75;1.25;;;;;;;29.19;43.49;101103.13;5034702;28;20505;-64
2023/08/04 09:28:30;;;;;;;5.00;2.47;;;;;;;29.86;42.67;101104.19;5033415;28;20045;-64
2023/08/04 09:31:25;;;;;;;3.63;1.50;;;;;;;30.81;40.94;101095.78;5033480;28;20401;-64
2023/08/04 09:33:58;;;;;;;3.70;1.50;;;;;;;31.18;41.50;101101.56;5025056;28;20060;-64
2023/08/04 09:36:23;;;;;;;4.85;1.67;;;;;;;31.18;41.10;101102.41;5033323;28;20414;-64
2023/08/04 09:38:49;;;;;;;5.68;1.75;;;;;;;31.16;41.46;101098.22;5034519;28;20033;-64
2023/08/04 09:41:15;;;;;;;1.75;1.35;;;;;;;31.36;41.20;101102.03;5033588;28;20474;-64
2023/08/04 09:43:43;;;;;;;4.05;1.70;;;;;;;32.17;39.83;101103.75;5033316;28;20037;-64
2023/08/04 09:46:09;;;;;;;6.38;1.70;;;;;;;32.76;39.24;101104.44;5034562;28;20087;-64
2023/08/04 09:48:34;;;;;;;9.75;2.45;;;;;;;32.69;39.17;101100.25;5016621;28;20038;-64
2023/08/04 09:51:14;;;;;;;2.22;1.40;;;;;;;33.05;38.70;101101.28;5032920;28;20033;-64
2023/08/04 09:53:46;;;;;;;1.98;1.60;;;;;;;32.72;38.78;101103.31;5032775;28;20539;-65
2023/08/04 09:56:17;;;;;;;3.17;1.52;;;;;;;32.49;38.83;101109.25;5032946;28;20021;-64
2023/08/04 09:58:43;;;;;;;5.25;1.73;;;;;;;32.80;38.68;101105.56;5016537;28;20033;-66
2023/08/04 10:01:08;;;;;;;1.95;1.35;;;;;;;32.57;38.22;101103.22;5032928;28;20029;-63
2023/08/04 10:03:36;;;;;;;1.73;1.63;;;;;;;32.40;38.06;101110.84;5034292;28;20092;-63
2023/08/04 10:06:05;;;;;;;1.73;1.52;;;;;;;32.20;38.39;101111.53;5034006;28;20107;-63
2023/08/04 10:08:31;;;;;;;2.20;1.98;;;;;;;32.08;38.94;101108.09;5033924;28;20037;-66
2023/08/04 10:10:58;;;;;;;3.22;2.03;;;;;;;32.20;38.19;101110.69;5032712;28;20039;-64
2023/08/04 10:13:28;;;;;;;2.08;1.65;;;;;;;32.16;37.42;101106.78;5033718;28;20033;-64
2023/08/04 10:15:55;;;;;;;2.33;2.05;;;;;;;33.16;36.66;101116.91;5032603;28;20037;-64
2023/08/04 10:18:20;;;;;;;3.17;1.48;;;;;;;33.22;36.46;101111.06;5049561;28;20072;-64
2023/08/04 10:20:46;;;;;;;4.18;1.85;;;;;;;32.99;36.94;101102.34;5016028;28;20026;-64
2023/08/04 10:23:12;;;;;;;1.70;1.52;;;;;;;33.65;36.03;101097.88;5033963;28;20037;-64
2023/08/04 10:25:38;;;;;;;4.72;1.45;;;;;;;33.22;36.30;101107.50;5032385;28;20033;-64
2023/08/04 10:28:04;;;;;;;1.60;1.50;;;;;;;32.72;36.79;101113.59;5033729;28;20044;-64
2023/08/04 10:30:29;;;;;;;2.38;1.40;;;;;;;32.27;37.26;101108.53;5032764;28;20034;-64
2023/08/04 10:33:08;;;;;;;2.28;1.45;;;;;;;31.90;36.68;101114.00;5032286;28;20559;-64
2023/08/04 10:35:34;;;;;;;1.13;1.02;;;;;;;31.61;38.04;101110.66;5033742;28;20057;-64
2023/08/04 10:37:59;;;;;;;2.95;1.50;;;;;;;31.40;37.86;101119.81;5033715;28;20063;-64
2023/08/04 10:40:29;;;;;;;1.60;1.42;;;;;;;31.24;37.29;101117.13;5033613;28;20454;-65
2023/08/04 10:43:04;;;;;;;2.88;1.88;;;;;;;31.13;37.74;101119.75;5033582;28;20585;-65
2023/08/04 10:45:49;;;;;;;2.35;1.40;;;;;;;31.17;37.61;101117.31;5048740;28;20064;-64
2023/08/04 10:48:17;;;;;;;1.80;1.50;;;;;;;31.21;37.83;101107.41;5032318;28;20112;-64
2023/08/04 10:50:43;;;;;;;2.40;1.45;;;;;;;31.30;37.15;101114.16;5032222;28;20456;-64
2023/08/04 10:53:09;;;;;;;3.65;1.70;;;;;;;31.33;37.15;101116.41;5032038;28;20041;-64
2023/08/04 10:55:35;;;;;;;1.88;1.60;;;;;;;31.31;37.13;101112.22;4999213;28;20030;-63
2023/08/04 10:58:00;;;;;;;2.08;1.75;;;;;;;31.09;37.19;101115.84;5032048;28;20033;-64
2023/08/04 11:00:25;;;;;;;2.47;1.65;;;;;;;30.90;37.68;101117.22;5032055;28;20124;-64
2023/08/04 11:02:51;;;;;;;2.70;1.63;;;;;;;30.74;37.25;101122.81;5033686;28;20140;-64
2023/08/04 11:05:16;;;;;;;3.00;1.30;;;;;;;30.63;37.89;101121.00;5031788;28;20041;-63
2023/08/04 11:07:46;;;;;;;2.05;1.75;;;;;;;30.92;37.30;101123.38;5032144;28;20057;-64
2023/08/04 11:10:11;;;;;;;1.63;1.50;;;;;;;31.62;36.94;101128.97;5032844;28;20037;-63
2023/08/04 11:12:38;;;;;;;3.63;1.00;;;;;;;32.44;35.78;101123.06;5015146;28;20068;-63
2023/08/04 11:15:04;;;;;;;1.05;1.05;;;;;;;33.60;34.92;101114.56;5031834;28;20038;-64
2023/08/04 11:17:29;;;;;;;2.15;1.10;;;;;;;33.47;34.69;101126.19;5031866;28;20034;-64
2023/08/04 11:19:57;;;;;;;2.05;1.08;;;;;;;33.78;34.39;101127.97;5048419;28;20056;-64